Time;durP1;ratioP1;P1;durP2;ratioP2;P2;SDS_P1;SDS_P2;PMS_P1;PMS_P2;Temp;Humidity;BMP_temperature;BMP_pressure;BME280_temperature;BME280_humidity;BME280_pressure;Samples;Min_cycle;Max_cycle;Signal;HPM_P1;HPM_P2
2023/03/20 00:02:07;;;;;;;20.67;9.57;;;;;;;4.72;47.42;99804.88;5019041;28;20464;-67
2023/03/20 00:04:33;;;;;;;29.27;10.30;;;;;;;4.58;47.55;99820.84;5017817;28;20556;-66
2023/03/20 00:06:59;;;;;;;26.97;10.73;;;;;;;4.59;47.57;99822.53;5036245;28;20102;-67
2023/03/20 00:09:25;;;;;;;24.07;9.00;;;;;;;4.59;47.53;99819.91;5038929;28;20036;-66
2023/03/20 00:11:52;;;;;;;26.70;10.60;;;;;;;4.86;47.55;99813.38;5056053;28;20470;-67
2023/03/20 00:14:21;;;;;;;27.33;10.17;;;;;;;4.95;47.53;99815.28;5072601;28;20113;-67
2023/03/20 00:16:48;;;;;;;23.80;11.33;;;;;;;4.89;47.69;99810.50;5055852;28;20095;-66
2023/03/20 00:19:18;;;;;;;29.87;10.80;;;;;;;4.60;47.37;99813.66;5038410;28;20086;-76
2023/03/20 00:21:46;;;;;;;34.73;11.13;;;;;;;5.05;47.49;99808.38;5022562;28;20106;-74
2023/03/20 00:24:13;;;;;;;34.07;10.33;;;;;;;4.86;47.18;99799.34;5055891;28;20099;-66
2023/03/20 00:26:39;;;;;;;25.93;10.13;;;;;;;4.87;46.71;99801.06;5072566;28;20129;-66
2023/03/20 00:29:06;;;;;;;23.77;10.10;;;;;;;4.98;46.72;99801.06;5038827;28;20045;-66
2023/03/20 00:31:37;;;;;;;26.17;10.17;;;;;;;5.06;46.67;99803.91;5055484;28;20056;-66
2023/03/20 00:34:11;;;;;;;25.00;9.70;;;;;;;5.26;46.89;99797.13;5038580;28;20110;-66
2023/03/20 00:36:39;;;;;;;23.13;10.17;;;;;;;4.73;46.60;99799.50;5038618;28;20076;-66
2023/03/20 00:39:06;;;;;;;26.17;9.53;;;;;;;4.86;46.85;99805.47;5055385;28;20052;-67
2023/03/20 00:41:45;;;;;;;19.30;8.70;;;;;;;5.26;47.14;99797.94;5038956;28;20101;-66
2023/03/20 00:44:17;;;;;;;24.93;9.60;;;;;;;5.23;46.99;99798.19;5072979;28;20079;-67
2023/03/20 00:46:45;;;;;;;21.40;9.07;;;;;;;5.12;46.98;99796.41;5038826;28;20415;-67
2023/03/20 00:49:11;;;;;;;17.47;8.70;;;;;;;4.84;46.44;99802.09;5022352;28;20135;-67
2023/03/20 00:51:38;;;;;;;20.20;10.07;;;;;;;4.84;46.37;99796.03;5055111;28;20127;-66
2023/03/20 00:54:15;;;;;;;25.80;9.60;;;;;;;5.35;46.78;99793.75;5038579;28;20559;-66
2023/03/20 00:56:56;;;;;;;28.10;9.53;;;;;;;5.41;46.34;99799.38;5022115;28;20127;-68
2023/03/20 00:59:23;;;;;;;;;;;;;;;5.59;45.60;99789.16;5072225;28;20048;-67
2023/03/20 01:01:49;;;;;;;19.23;9.07;;;;;;;4.80;46.12;99791.94;5055247;28;19920;-67
2023/03/20 01:04:17;;;;;;;17.63;8.03;;;;;;;5.12;46.34;99790.28;5038411;28;20056;-66
2023/03/20 01:06:43;;;;;;;23.93;9.67;;;;;;;4.92;46.55;99788.38;5054782;28;20094;-67
2023/03/20 01:09:09;;;;;;;27.93;9.73;;;;;;;4.69;46.44;99782.25;5021945;28;20062;-66
2023/03/20 01:11:36;;;;;;;20.90;8.50;;;;;;;4.92;46.57;99788.38;5038301;28;20116;-66
2023/03/20 01:14:02;;;;;;;18.93;7.80;;;;;;;4.86;46.51;99775.69;5021391;28;20494;-66
2023/03/20 01:16:28;;;;;;;20.07;8.30;;;;;;;4.82;46.45;99787.41;5021729;28;20166;-67
2023/03/20 01:18:54;;;;;;;18.67;7.50;;;;;;;4.96;46.33;99780.13;5005290;28;20067;-67
2023/03/20 01:21:20;;;;;;;17.13;8.00;;;;;;;4.86;45.98;99780.94;5053950;28;20048;-66
2023/03/20 01:23:47;;;;;;;21.27;8.17;;;;;;;4.93;46.27;99766.38;5038097;28;20435;-66
2023/03/20 01:26:29;;;;;;;16.43;8.07;;;;;;;5.33;46.25;99777.22;5054635;28;20076;-67
2023/03/20 01:28:54;;;;;;;20.07;7.73;;;;;;;4.77;45.92;99784.28;5004849;28;20201;-67
2023/03/20 01:31:21;;;;;;;22.07;8.27;;;;;;;4.73;46.01;99775.81;5004616;28;20131;-66
2023/03/20 01:33:47;;;;;;;17.20;7.90;;;;;;;4.78;45.91;99772.81;5036965;28;20201;-67
2023/03/20 01:36:14;;;;;;;19.53;8.07;;;;;;;5.07;46.25;99772.22;5020629;28;20536;-67
2023/03/20 01:38:41;;;;;;;13.57;7.53;;;;;;;4.79;46.44;99771.88;5019945;28;20044;-67
2023/03/20 01:41:17;;;;;;;20.33;8.10;;;;;;;5.27;46.38;99768.03;5004341;28;20433;-66
2023/03/20 01:43:44;;;;;;;20.00;7.90;;;;;;;4.98;46.04;99775.56;5021583;28;20044;-67
2023/03/20 01:46:11;;;;;;;14.87;6.53;;;;;;;4.86;46.26;99767.78;5037792;28;20044;-67
2023/03/20 01:48:54;;;;;;;13.07;6.97;;;;;;;5.41;46.74;99774.84;5021141;28;20330;-67
2023/03/20 01:51:25;;;;;;;18.03;7.13;;;;;;;5.08;46.64;99767.78;5037699;28;20032;-67
2023/03/20 01:54:14;;;;;;;14.97;6.90;;;;;;;5.41;46.48;99759.88;5022023;28;20044;-67
2023/03/20 01:56:58;;;;;;;12.80;6.83;;;;;;;4.85;46.15;99752.97;5054224;28;20049;-67
2023/03/20 01:59:33;;;;;;;;;;;;;;;5.61;45.88;99756.47;5021429;28;20063;-67
2023/03/20 02:01:59;;;;;;;10.70;5.97;;;;;;;4.92;45.95;99756.81;5021081;28;19916;-67
2023/03/20 02:04:35;;;;;;;18.77;6.73;;;;;;;5.38;46.22;99741.69;5021188;28;20066;-67
2023/03/20 02:07:12;;;;;;;13.07;6.90;;;;;;;5.35;45.90;99743.72;5054290;28;20147;-67
2023/03/20 02:09:55;;;;;;;12.20;6.80;;;;;;;4.98;45.63;99756.34;5039535;28;20098;-67
2023/03/20 02:12:31;;;;;;;21.60;6.83;;;;;;;5.10;45.76;99752.72;5007524;28;20041;-66
2023/03/20 02:14:58;;;;;;;15.80;7.33;;;;;;;4.92;45.96;99755.00;5004649;28;20041;-66
2023/03/20 02:17:50;;;;;;;14.73;6.77;;;;;;;4.92;45.80;99757.63;5017524;28;20143;-73
2023/03/20 02:20:55;;;;;;;14.20;7.57;;;;;;;5.52;45.81;99751.94;5004927;28;20459;-65
2023/03/20 02:23:33;;;;;;;19.73;7.80;;;;;;;5.42;45.55;99750.16;5037624;28;20052;-69
2023/03/20 02:26:00;;;;;;;16.27;7.57;;;;;;;4.58;45.91;99750.66;5020901;28;20133;-68
2023/03/20 02:28:45;;;;;;;15.60;7.37;;;;;;;5.22;46.27;99751.75;5021353;28;20064;-66
2023/03/20 02:31:33;;;;;;;27.93;8.20;;;;;;;5.23;46.37;99745.53;5020646;28;20480;-67
2023/03/20 02:33:59;;;;;;;15.13;7.30;;;;;;;4.53;46.73;99744.94;5020900;28;20044;-67
2023/03/20 02:36:47;;;;;;;15.33;8.00;;;;;;;5.05;46.65;99749.63;5020349;28;20094;-67
2023/03/20 02:39:21;;;;;;;17.80;8.10;;;;;;;4.85;47.11;99726.66;5037173;28;20048;-67
2023/03/20 02:41:59;;;;;;;17.00;8.03;;;;;;;4.85;47.37;99740.66;5021051;28;20041;-67
2023/03/20 02:44:51;;;;;;;20.67;8.43;;;;;;;4.70;48.07;99738.38;5023206;28;20109;-67
2023/03/20 02:47:23;;;;;;;17.07;8.17;;;;;;;4.41;47.85;99730.06;5021211;28;20079;-67
2023/03/20 02:49:59;;;;;;;20.97;8.57;;;;;;;4.49;48.58;99738.22;5057895;28;20131;-66
2023/03/20 02:52:34;;;;;;;19.40;7.57;;;;;;;4.45;48.54;99736.78;5024376;28;20384;-67
2023/03/20 02:55:20;;;;;;;15.87;8.17;;;;;;;4.40;48.72;99735.44;5040703;28;20072;-71
2023/03/20 02:58:10;;;;;;;21.00;8.47;;;;;;;4.43;48.91;99732.59;5040854;28;20076;-67
2023/03/20 03:01:08;;;;;;;16.13;8.33;;;;;;;4.33;49.08;99731.63;5040853;28;20129;-66
2023/03/20 03:03:43;;;;;;;13.53;7.90;;;;;;;4.06;49.10;99731.09;5056994;28;20504;-66
2023/03/20 03:06:21;;;;;;;17.87;8.10;;;;;;;4.12;49.74;99733.25;5040397;28;20052;-66
2023/03/20 03:08:51;;;;;;;20.80;7.67;;;;;;;3.93;50.02;99718.03;5056877;28;20097;-66
2023/03/20 03:11:17;;;;;;;17.30;8.47;;;;;;;3.44;50.17;99733.91;5056870;28;20056;-67
2023/03/20 03:14:05;;;;;;;17.50;7.70;;;;;;;4.14;50.24;99731.31;5040369;28;20055;-67
2023/03/20 03:16:34;;;;;;;14.30;8.30;;;;;;;3.87;50.56;99725.53;5007172;28;20488;-67
2023/03/20 03:19:17;;;;;;;14.60;8.47;;;;;;;3.93;50.98;99717.19;5023674;28;20071;-67
2023/03/20 03:21:45;;;;;;;16.00;7.30;;;;;;;3.84;50.67;99721.34;5023581;28;20056;-66
2023/03/20 03:24:28;;;;;;;14.70;7.83;;;;;;;4.05;50.72;99717.09;5039937;28;20059;-66
2023/03/20 03:26:56;;;;;;;17.60;8.30;;;;;;;3.81;50.16;99715.47;5039930;28;20044;-74
2023/03/20 03:29:23;;;;;;;16.13;7.63;;;;;;;3.70;49.93;99715.41;5040468;28;20158;-66
2023/03/20 03:31:50;;;;;;;20.77;8.17;;;;;;;3.65;50.03;99709.66;5057007;28;20090;-72
2023/03/20 03:34:17;;;;;;;14.13;7.20;;;;;;;3.53;51.04;99713.19;5039674;28;20076;-66
2023/03/20 03:36:58;;;;;;;16.47;8.50;;;;;;;3.70;51.87;99716.28;5039918;28;20063;-67
2023/03/20 03:39:53;;;;;;;15.80;8.00;;;;;;;3.98;51.42;99715.91;5023446;28;20048;-71
2023/03/20 03:43:02;;;;;;;21.80;9.50;;;;;;;3.83;51.69;99718.84;5056331;28;20036;-67
2023/03/20 03:45:37;;;;;;;17.10;8.20;;;;;;;3.84;51.26;99710.00;5056065;28;20049;-65
2023/03/20 03:48:12;;;;;;;19.80;9.30;;;;;;;4.01;50.74;99712.19;5023068;28;20052;-65
2023/03/20 03:50:47;;;;;;;20.97;9.70;;;;;;;3.99;50.40;99714.09;5023278;28;20040;-65
2023/03/20 03:53:19;;;;;;;19.47;9.60;;;;;;;3.92;49.61;99712.88;5023248;28;20135;-65
2023/03/20 03:55:50;;;;;;;18.80;9.00;;;;;;;4.03;49.52;99705.88;5022580;28;20052;-65
2023/03/20 03:58:45;;;;;;;17.42;8.07;;;;;;;3.68;48.84;99715.53;5016493;28;20044;-66
2023/03/20 04:01:12;;;;;;;17.73;8.83;;;;;;;3.97;48.83;99711.56;5001338;28;20157;-68
2023/03/20 04:03:42;;;;;;;19.77;9.47;;;;;;;4.14;48.58;99711.16;5018290;28;20136;-68
2023/03/20 04:06:11;;;;;;;28.07;9.67;;;;;;;4.15;48.75;99706.75;5001825;28;20465;-67
2023/03/20 04:08:39;;;;;;;19.10;9.90;;;;;;;4.06;49.08;99708.25;5034920;28;20127;-67
2023/03/20 04:11:05;;;;;;;22.83;9.53;;;;;;;3.80;49.14;99698.88;5018262;28;20060;-68
2023/03/20 04:13:31;;;;;;;21.13;9.87;;;;;;;3.80;49.10;99700.69;5034641;28;20045;-68
2023/03/20 04:15:58;;;;;;;22.63;9.43;;;;;;;3.65;49.19;99692.13;4960827;28;20065;-65
2023/03/20 04:18:26;;;;;;;19.40;9.47;;;;;;;3.78;49.04;99687.66;4974730;28;20081;-74
2023/03/20 04:20:53;;;;;;;25.17;9.70;;;;;;;3.83;48.99;99695.19;4958943;28;20058;-66
2023/03/20 04:23:19;;;;;;;22.03;9.20;;;;;;;3.92;48.31;99694.50;4974534;28;20057;-66
2023/03/20 04:25:46;;;;;;;18.10;8.77;;;;;;;3.93;47.77;99702.25;4958806;28;20050;-68
2023/03/20 04:28:15;;;;;;;23.93;10.50;;;;;;;4.01;47.64;99697.28;4942970;28;20133;-66
2023/03/20 04:31:07;;;;;;;14.93;7.63;;;;;;;4.07;47.73;99693.34;4948913;28;20057;-70
2023/03/20 04:33:47;;;;;;;15.77;8.47;;;;;;;4.08;47.44;99701.09;4960330;28;20046;-67
2023/03/20 04:36:39;;;;;;;18.07;10.27;;;;;;;3.97;47.60;99697.59;4949653;28;20630;-68
2023/03/20 04:39:07;;;;;;;30.63;13.17;;;;;;;4.01;47.41;99702.53;4974326;28;20394;-67
2023/03/20 04:41:33;;;;;;;18.90;9.20;;;;;;;3.96;47.72;99695.94;4974372;28;20054;-66
2023/03/20 04:43:58;;;;;;;20.77;9.63;;;;;;;3.93;47.84;99696.16;4974099;28;20053;-68
2023/03/20 04:46:25;;;;;;;23.03;11.20;;;;;;;4.00;47.68;99700.84;4991346;28;20044;-68
2023/03/20 04:48:51;;;;;;;21.37;11.20;;;;;;;4.07;47.29;99696.81;5001271;28;20187;-70
2023/03/20 04:51:18;;;;;;;17.93;9.87;;;;;;;4.10;47.21;99703.63;5017882;28;20064;-67
2023/03/20 04:53:48;;;;;;;28.17;12.90;;;;;;;4.18;47.05;99701.25;5002218;28;20491;-67
2023/03/20 04:56:14;;;;;;;25.37;10.90;;;;;;;4.15;46.96;99704.94;5001100;28;20287;-67
2023/03/20 04:58:40;;;;;;;23.17;10.63;;;;;;;4.18;47.29;99701.25;5033021;28;20477;-66
2023/03/20 05:01:06;;;;;;;19.43;9.00;;;;;;;4.15;47.38;99690.97;5034267;28;20077;-66
2023/03/20 05:03:32;;;;;;;28.30;12.70;;;;;;;4.29;46.65;99699.47;5033874;28;20554;-67
2023/03/20 05:05:58;;;;;;;29.57;12.47;;;;;;;4.39;46.76;99710.13;5031812;28;20048;-66
2023/03/20 05:08:25;;;;;;;29.93;14.13;;;;;;;4.38;46.60;99695.31;4999205;28;20044;-67
2023/03/20 05:10:55;;;;;;;35.13;14.68;;;;;;;4.49;46.24;99711.94;5000388;28;20044;-66
2023/03/20 05:13:39;;;;;;;25.37;11.80;;;;;;;4.47;46.07;99711.22;5005686;28;20103;-66
2023/03/20 05:16:38;;;;;;;26.13;11.03;;;;;;;4.82;46.07;99711.09;5013677;28;20041;-67
2023/03/20 05:19:17;;;;;;;22.20;11.33;;;;;;;4.54;46.04;99715.03;5019230;28;20075;-66
2023/03/20 05:22:01;;;;;;;21.30;11.13;;;;;;;4.58;46.09;99719.09;5022432;28;20057;-66
2023/03/20 05:24:40;;;;;;;27.77;11.17;;;;;;;4.51;46.04;99717.06;5035689;28;20067;-66
2023/03/20 05:27:30;;;;;;;21.00;9.27;;;;;;;4.77;45.94;99718.50;5023766;28;20063;-66
2023/03/20 05:30:21;;;;;;;27.47;10.80;;;;;;;4.72;45.38;99713.59;5033399;28;20040;-67
2023/03/20 05:33:19;;;;;;;27.47;13.00;;;;;;;4.89;45.02;99707.88;5021417;28;20064;-66
2023/03/20 05:36:09;;;;;;;16.00;7.57;;;;;;;5.15;44.23;99711.09;5003844;28;20127;-66
2023/03/20 05:38:57;;;;;;;17.47;9.03;;;;;;;5.33;43.88;99711.41;5037196;28;20051;-66
2023/03/20 05:41:42;;;;;;;19.60;9.50;;;;;;;5.44;43.35;99706.09;5052083;28;20114;-65
2023/03/20 05:44:40;;;;;;;18.37;9.00;;;;;;;5.66;42.81;99701.59;4991309;28;20121;-67
2023/03/20 05:47:40;;;;;;;24.33;11.17;;;;;;;6.04;42.29;99707.19;5016821;28;20052;-67
2023/03/20 05:50:25;;;;;;;19.70;8.73;;;;;;;6.11;41.47;99710.16;5019563;28;20568;-67
2023/03/20 05:53:11;;;;;;;17.97;8.50;;;;;;;6.37;40.87;99711.44;4982746;28;20114;-68
2023/03/20 05:55:51;;;;;;;24.33;11.20;;;;;;;6.59;40.46;99703.38;5033303;28;20047;-66
2023/03/20 05:58:35;;;;;;;25.20;10.50;;;;;;;6.90;40.12;99703.25;5019056;28;20052;-67
2023/03/20 06:01:01;;;;;;;22.57;11.53;;;;;;;7.17;39.75;99707.06;5016820;28;20055;-68
2023/03/20 06:03:47;;;;;;;26.50;11.83;;;;;;;7.78;39.14;99705.94;5005253;28;20053;-66
2023/03/20 06:06:18;;;;;;;16.60;9.17;;;;;;;7.81;37.16;99705.66;5049950;28;20041;-66
2023/03/20 06:08:48;;;;;;;28.37;11.10;;;;;;;8.08;37.09;99713.72;5017774;28;20044;-66
2023/03/20 06:11:14;;;;;;;22.97;10.33;;;;;;;8.30;36.48;99708.97;5016162;28;20041;-67
2023/03/20 06:13:40;;;;;;;30.27;10.83;;;;;;;8.15;36.44;99712.16;5016165;28;20040;-66
2023/03/20 06:16:07;;;;;;;17.83;9.70;;;;;;;8.34;36.31;99714.84;5032851;28;20044;-66
2023/03/20 06:18:34;;;;;;;12.83;7.43;;;;;;;8.22;34.42;99695.66;5036624;28;20068;-67
2023/03/20 06:21:01;;;;;;;12.97;8.03;;;;;;;8.47;33.96;99712.72;5004146;28;20476;-66
2023/03/20 06:23:28;;;;;;;22.03;9.70;;;;;;;8.88;34.08;99707.03;5053928;28;20063;-68
2023/03/20 06:25:54;;;;;;;19.90;9.73;;;;;;;9.45;34.07;99704.06;5020440;28;20109;-67
2023/03/20 06:28:21;;;;;;;17.23;9.63;;;;;;;9.99;33.53;99706.56;5020716;28;20488;-65
2023/03/20 06:30:53;;;;;;;21.70;10.83;;;;;;;10.85;32.87;99697.78;5020584;28;20088;-67
2023/03/20 06:33:20;;;;;;;26.77;9.80;;;;;;;10.90;32.15;99690.16;5020571;28;20122;-66
2023/03/20 06:35:58;;;;;;;21.97;11.10;;;;;;;11.24;31.32;99684.84;5022474;28;20057;-67
2023/03/20 06:38:26;;;;;;;22.03;9.37;;;;;;;11.51;30.97;99689.88;4988727;28;20041;-66
2023/03/20 06:40:52;;;;;;;26.52;9.50;;;;;;;11.60;30.56;99688.91;5019879;28;20041;-66
2023/03/20 06:43:18;;;;;;;20.20;9.05;;;;;;;11.87;30.54;99691.28;5020142;28;20068;-66
2023/03/20 06:45:49;;;;;;;;;;;;;;;12.93;29.41;99696.38;5021347;28;20397;-66
2023/03/20 06:48:24;;;;;;;21.30;10.00;;;;;;;12.58;29.45;99691.44;5022228;28;20236;-66
2023/03/20 06:50:51;;;;;;;20.52;9.70;;;;;;;12.98;29.31;99691.34;5003446;28;20045;-66
2023/03/20 06:53:21;;;;;;;29.13;10.00;;;;;;;13.16;28.91;99691.97;5020287;28;20055;-67
2023/03/20 06:56:04;;;;;;;20.50;10.13;;;;;;;13.37;28.46;99687.72;5036509;28;20071;-66
2023/03/20 06:58:30;;;;;;;18.95;9.80;;;;;;;13.46;28.21;99688.50;5003898;28;20144;-65
2023/03/20 07:00:56;;;;;;;21.70;10.35;;;;;;;13.75;28.10;99680.63;5003437;28;20135;-66
2023/03/20 07:03:22;;;;;;;25.92;11.00;;;;;;;13.99;27.66;99685.78;5019524;28;20477;-66
2023/03/20 07:05:49;;;;;;;23.55;11.23;;;;;;;14.18;27.48;99687.16;5019793;28;20424;-67
2023/03/20 07:08:16;;;;;;;21.63;11.70;;;;;;;14.44;27.15;99685.78;5019231;28;20439;-66
2023/03/20 07:10:44;;;;;;;24.48;10.70;;;;;;;14.78;26.07;99687.94;5029589;28;20052;-67
2023/03/20 07:13:13;;;;;;;25.55;9.98;;;;;;;15.06;26.07;99684.47;5017369;28;20161;-66
2023/03/20 07:15:40;;;;;;;24.85;10.93;;;;;;;15.21;25.46;99685.28;5037187;28;20048;-66
2023/03/20 07:18:08;;;;;;;23.02;10.38;;;;;;;15.62;25.29;99682.91;5004565;28;20867;-66
2023/03/20 07:20:34;;;;;;;21.30;10.35;;;;;;;16.05;24.77;99679.22;5062529;28;20053;-65
2023/03/20 07:23:00;;;;;;;22.60;10.63;;;;;;;16.50;24.07;99683.38;5046090;28;20044;-66
2023/03/20 07:25:28;;;;;;;26.02;10.10;;;;;;;16.91;23.25;99659.31;5018657;28;20044;-66
2023/03/20 07:27:55;;;;;;;19.67;10.50;;;;;;;17.20;22.68;99667.94;5029785;28;20388;-66
2023/03/20 07:30:24;;;;;;;24.90;14.55;;;;;;;17.54;22.46;99677.81;5032424;28;20045;-65
2023/03/20 07:32:50;;;;;;;34.70;14.68;;;;;;;17.83;22.40;99672.09;5053911;28;20041;-66
2023/03/20 07:35:19;;;;;;;28.45;11.88;;;;;;;18.16;22.14;99668.44;5030255;28;20044;-65
2023/03/20 07:37:45;;;;;;;24.52;9.45;;;;;;;18.32;21.16;99664.50;5054271;28;20362;-66
2023/03/20 07:40:11;;;;;;;19.02;9.02;;;;;;;18.89;20.87;99670.06;5022045;28;20464;-67
2023/03/20 07:42:51;;;;;;;23.08;11.27;;;;;;;19.49;20.17;99666.16;5008125;28;20366;-66
2023/03/20 07:45:35;;;;;;;22.80;10.10;;;;;;;20.79;18.93;99667.94;5053855;28;20052;-70
2023/03/20 07:48:01;;;;;;;18.33;9.77;;;;;;;21.34;18.34;99663.41;5011866;28;20041;-68
2023/03/20 07:50:27;;;;;;;22.52;8.50;;;;;;;21.57;17.80;99658.94;5035398;28;20043;-65
2023/03/20 07:52:53;;;;;;;21.33;8.18;;;;;;;21.47;17.30;99653.28;5028611;28;20036;-65
2023/03/20 07:55:20;;;;;;;17.10;8.23;;;;;;;21.25;17.03;99653.97;5010574;28;20068;-65
2023/03/20 07:57:48;;;;;;;17.15;8.15;;;;;;;20.95;16.76;99653.91;5022888;28;20067;-66
2023/03/20 08:00:15;;;;;;;15.93;7.82;;;;;;;20.32;17.23;99663.19;5045045;28;20040;-65
2023/03/20 08:02:41;;;;;;;13.27;7.18;;;;;;;19.57;17.13;99644.38;5035133;28;20048;-66
2023/03/20 08:05:08;;;;;;;17.60;8.25;;;;;;;18.83;18.28;99646.69;5042402;28;20102;-65
2023/03/20 08:07:34;;;;;;;14.82;8.68;;;;;;;18.48;18.72;99638.03;5045055;28;20101;-65
2023/03/20 08:10:00;;;;;;;19.13;7.93;;;;;;;18.89;18.38;99645.84;5019933;28;20443;-67
2023/03/20 08:12:26;;;;;;;20.60;8.32;;;;;;;19.36;17.49;99652.75;5016662;28;20047;-66
2023/03/20 08:14:52;;;;;;;19.00;8.10;;;;;;;20.18;16.60;99661.63;5017173;28;20056;-65
2023/03/20 08:17:18;;;;;;;14.18;7.90;;;;;;;21.82;15.04;99653.44;5001427;28;20045;-66
2023/03/20 08:19:44;;;;;;;11.52;6.82;;;;;;;23.66;13.46;99662.66;5014929;28;20372;-66
2023/03/20 08:22:10;;;;;;;6.95;3.40;;;;;;;24.96;11.52;99651.34;5047036;28;20037;-66
2023/03/20 08:24:36;;;;;;;8.82;4.43;;;;;;;25.52;11.10;99661.09;5027520;28;20101;-65
2023/03/20 08:27:02;;;;;;;14.27;5.60;;;;;;;25.59;11.35;99651.66;5022705;28;20047;-67
2023/03/20 08:29:28;;;;;;;15.43;5.78;;;;;;;26.35;10.83;99645.91;5027213;28;20458;-66
2023/03/20 08:31:54;;;;;;;15.90;7.38;;;;;;;26.52;10.83;99646.59;5030584;28;20119;-66
2023/03/20 08:34:20;;;;;;;15.35;7.75;;;;;;;27.30;10.18;99650.41;5035391;28;20095;-68
2023/03/20 08:36:46;;;;;;;15.82;8.45;;;;;;;26.53;10.72;99647.44;5010426;28;20060;-66
2023/03/20 08:39:12;;;;;;;16.73;8.25;;;;;;;25.70;11.48;99645.25;5033258;28;20106;-66
2023/03/20 08:41:38;;;;;;;18.25;8.82;;;;;;;25.09;11.58;99633.88;5018124;28;20123;-66
2023/03/20 08:44:05;;;;;;;15.40;8.98;;;;;;;24.63;12.37;99641.34;5030951;28;20067;-66
2023/03/20 08:46:31;;;;;;;23.63;9.45;;;;;;;25.20;11.93;99631.03;5041543;28;20491;-68
2023/03/20 08:48:57;;;;;;;18.13;8.98;;;;;;;25.47;11.54;99637.38;5035539;28;20090;-67
2023/03/20 08:51:24;;;;;;;16.50;8.20;;;;;;;26.01;11.27;99633.66;5033352;28;20545;-67
2023/03/20 08:53:50;;;;;;;16.60;7.57;;;;;;;26.29;10.78;99629.81;5052462;28;20082;-67
2023/03/20 08:56:15;;;;;;;18.67;7.75;;;;;;;25.43;11.16;99628.06;5046343;28;20061;-66
2023/03/20 08:58:41;;;;;;;20.73;7.70;;;;;;;24.69;11.54;99621.34;5016373;28;20067;-67
2023/03/20 09:01:08;;;;;;;21.63;7.50;;;;;;;25.04;11.58;99614.78;5018755;28;20048;-66
2023/03/20 09:03:35;;;;;;;14.27;7.90;;;;;;;25.86;11.42;99606.22;5048795;28;20151;-67
2023/03/20 09:06:09;;;;;;;13.45;6.50;;;;;;;27.05;10.48;99610.16;5027594;28;20040;-67
2023/03/20 09:08:35;;;;;;;11.48;6.75;;;;;;;27.26;10.34;99600.22;5051991;28;20129;-68
2023/03/20 09:11:01;;;;;;;19.42;7.13;;;;;;;26.66;10.45;99608.03;5015602;28;20093;-69
2023/03/20 09:13:33;;;;;;;13.73;6.80;;;;;;;26.67;10.61;99607.78;5118392;27;20722;-66
2023/03/20 09:15:59;;;;;;;14.65;6.25;;;;;;;27.06;10.35;99613.72;5039378;28;20046;-66
2023/03/20 09:18:25;;;;;;;15.50;6.22;;;;;;;27.25;10.13;99613.03;5089299;28;20056;-66
2023/03/20 09:20:51;;;;;;;16.70;6.63;;;;;;;27.51;10.28;99612.03;5037411;28;20596;-68
2023/03/20 09:23:17;;;;;;;9.85;5.82;;;;;;;27.72;10.02;99612.91;5055993;28;20119;-66
2023/03/20 09:25:43;;;;;;;13.25;6.50;;;;;;;28.02;9.98;99610.25;5087921;28;20047;-66
2023/03/20 09:28:09;;;;;;;12.82;6.43;;;;;;;29.31;9.22;99605.69;5038881;28;20040;-66
2023/03/20 09:30:35;;;;;;;11.07;5.90;;;;;;;30.08;8.68;99606.91;5054391;28;20054;-66
2023/03/20 09:33:01;;;;;;;10.13;5.47;;;;;;;29.92;8.72;99594.44;5038105;28;20341;-69
2023/03/20 09:35:27;;;;;;;9.52;5.68;;;;;;;29.97;8.45;99597.16;5040550;28;20484;-67
2023/03/20 09:37:53;;;;;;;14.50;5.82;;;;;;;29.08;9.09;99591.84;5061286;28;20086;-65
2023/03/20 09:40:28;;;;;;;13.73;5.55;;;;;;;28.81;9.37;99583.97;5027436;28;20048;-66
2023/03/20 09:43:06;;;;;;;7.95;5.35;;;;;;;29.01;9.40;99586.66;5063335;28;20436;-66
2023/03/20 09:45:52;;;;;;;12.43;6.28;;;;;;;29.14;8.88;99587.97;5018969;28;20040;-69
2023/03/20 09:48:23;;;;;;;7.88;4.95;;;;;;;29.02;9.33;99580.06;5038428;28;20048;-67
2023/03/20 09:51:16;;;;;;;11.98;5.22;;;;;;;30.00;9.20;99578.19;5032542;28;20048;-67
2023/03/20 09:53:47;;;;;;;9.55;5.03;;;;;;;30.72;8.20;99580.03;5051862;28;20446;-66
2023/03/20 09:56:25;;;;;;;8.57;5.22;;;;;;;30.00;8.48;99556.28;5034669;28;20151;-68
2023/03/20 09:58:56;;;;;;;9.50;5.10;;;;;;;30.17;8.70;99559.44;5068726;28;20421;-68
2023/03/20 10:01:26;;;;;;;9.00;4.90;;;;;;;30.65;8.69;99563.09;5012927;28;20111;-65
2023/03/20 10:03:56;;;;;;;10.80;5.13;;;;;;;30.42;8.61;99569.38;5046014;28;20202;-67
2023/03/20 10:06:21;;;;;;;12.52;5.65;;;;;;;29.77;8.85;99558.94;5033116;28;20470;-67
2023/03/20 10:08:47;;;;;;;13.65;6.47;;;;;;;29.93;8.74;99558.53;5016362;28;20044;-66
2023/03/20 10:11:34;;;;;;;16.35;5.50;;;;;;;29.73;9.11;99555.13;5031530;28;20041;-66
2023/03/20 10:14:00;;;;;;;11.55;6.13;;;;;;;28.62;9.63;99549.28;5015609;28;20072;-66
2023/03/20 10:16:41;;;;;;;18.80;6.10;;;;;;;29.34;9.45;99547.69;5032639;28;20335;-67
2023/03/20 10:19:20;;;;;;;16.63;6.60;;;;;;;29.22;9.52;99546.38;5049381;28;20075;-66
2023/03/20 10:21:48;;;;;;;13.68;5.80;;;;;;;29.34;9.31;99539.47;5016538;28;20402;-66
2023/03/20 10:24:20;;;;;;;16.98;6.30;;;;;;;29.81;9.11;99544.41;5007000;28;20181;-67
2023/03/20 10:26:49;;;;;;;13.30;6.05;;;;;;;30.05;8.97;99542.56;5036176;28;20101;-67
2023/03/20 10:29:31;;;;;;;11.40;5.72;;;;;;;30.38;8.81;99544.50;5021318;28;20040;-71
2023/03/20 10:32:31;;;;;;;13.88;5.68;;;;;;;29.86;9.06;99530.66;5004024;28;20077;-67
2023/03/20 10:35:15;;;;;;;13.02;5.88;;;;;;;30.02;8.93;99525.88;5022332;28;20091;-66
2023/03/20 10:38:15;;;;;;;10.00;5.15;;;;;;;29.84;9.04;99512.88;5002984;28;20033;-66
2023/03/20 10:40:41;;;;;;;14.60;6.07;;;;;;;30.68;8.66;99510.41;5001861;28;20044;-68
2023/03/20 10:43:21;;;;;;;8.05;5.45;;;;;;;31.31;8.49;99511.06;4986421;28;20118;-66
2023/03/20 10:45:48;;;;;;;8.83;5.33;;;;;;;31.77;8.13;99504.56;5002815;28;20125;-68
2023/03/20 10:48:26;;;;;;;10.90;5.85;;;;;;;31.63;8.19;99509.19;5006097;28;20287;-66
2023/03/20 10:50:57;;;;;;;8.02;5.78;;;;;;;30.30;8.81;99493.03;5035370;28;20049;-66
2023/03/20 10:53:30;;;;;;;12.55;5.80;;;;;;;28.94;9.59;99495.88;5041712;28;20420;-66
2023/03/20 10:56:04;;;;;;;10.63;5.38;;;;;;;27.67;10.75;99476.44;5002697;28;20053;-67
2023/03/20 10:58:34;;;;;;;12.50;6.20;;;;;;;27.21;10.73;99491.06;5033792;28;20049;-66
2023/03/20 11:01:01;;;;;;;8.70;5.57;;;;;;;26.84;11.02;99474.88;5018506;28;20041;-66
2023/03/20 11:03:29;;;;;;;10.38;5.90;;;;;;;28.29;10.74;99487.06;5018533;28;20463;-66
2023/03/20 11:06:07;;;;;;;11.10;5.70;;;;;;;28.99;9.93;99476.72;5012439;28;20049;-68
2023/03/20 11:08:35;;;;;;;8.05;5.70;;;;;;;29.04;9.60;99484.91;5036964;28;20044;-65
2023/03/20 11:11:03;;;;;;;9.18;5.07;;;;;;;29.76;9.67;99475.16;5020320;28;20045;-66
2023/03/20 11:13:35;;;;;;;9.95;5.95;;;;;;;29.64;9.75;99471.97;5007552;28;20169;-66
2023/03/20 11:16:22;;;;;;;8.95;5.50;;;;;;;29.96;9.54;99474.97;5002274;28;20395;-67
2023/03/20 11:18:49;;;;;;;9.10;5.50;;;;;;;28.98;9.98;99472.34;5051917;28;20080;-72
2023/03/20 11:21:27;;;;;;;9.05;5.40;;;;;;;29.73;9.76;99476.56;5025840;28;20446;-67
2023/03/20 11:23:57;;;;;;;11.80;5.90;;;;;;;29.33;9.46;99469.44;5053217;28;20098;-70
2023/03/20 11:26:38;;;;;;;11.85;5.75;;;;;;;28.89;9.91;99475.94;5019253;28;20061;-66
2023/03/20 11:29:04;;;;;;;;;;;;;;;28.48;10.29;99469.81;5069111;28;20052;-69
2023/03/20 11:31:39;;;;;;;15.82;6.25;;;;;;;27.36;11.09;99463.84;5004020;28;20085;-66
2023/03/20 11:34:13;;;;;;;8.63;5.40;;;;;;;26.78;11.26;99466.94;5020345;28;20047;-66
2023/03/20 11:36:40;;;;;;;9.40;4.90;;;;;;;25.81;11.83;99461.16;5048653;28;20048;-68
2023/03/20 11:39:05;;;;;;;11.05;5.78;;;;;;;25.33;12.42;99455.84;5030484;28;20502;-68
2023/03/20 11:41:32;;;;;;;10.20;5.43;;;;;;;24.82;12.82;99444.41;5017626;28;20051;-68
2023/03/20 11:43:57;;;;;;;11.35;5.97;;;;;;;24.26;13.22;99444.75;5002113;28;20198;-66
2023/03/20 11:46:24;;;;;;;9.68;5.70;;;;;;;23.60;14.02;99450.25;4999328;28;21027;-66
2023/03/20 11:49:20;;;;;;;11.18;5.82;;;;;;;22.94;14.38;99444.72;5000428;28;20041;-66
2023/03/20 11:51:46;;;;;;;10.88;5.43;;;;;;;20.68;16.09;99436.53;5037156;28;20123;-66
2023/03/20 11:54:20;;;;;;;12.43;5.88;;;;;;;20.18;16.97;99427.00;5036481;28;20058;-65
2023/03/20 11:56:55;;;;;;;13.88;5.30;;;;;;;19.43;17.85;99432.69;5036539;28;20382;-65